sensor_id;sensor_type;location;lat;lon;timestamp;temperature;humidity
23305;DHT22;11821;51.456;8.844;2022-10-13T00:00:41;8.80;99.90
23305;DHT22;11821;51.456;8.844;2022-10-13T00:03:08;8.80;99.90
23305;DHT22;11821;51.456;8.844;2022-10-13T00:05:38;8.70;99.90
23305;DHT22;11821;51.456;8.844;2022-10-13T00:08:04;8.60;99.90
23305;DHT22;11821;51.456;8.844;2022-10-13T00:10:41;8.60;99.90
23305;DHT22;11821;51.456;8.844;2022-10-13T00:13:11;8.60;99.90
23305;DHT22;11821;51.456;8.844;2022-10-13T00:15:42;8.50;99.90
23305;DHT22;11821;51.456;8.844;2022-10-13T00:18:09;8.60;99.90
23305;DHT22;11821;51.456;8.844;2022-10-13T00:20:40;8.60;99.90
23305;DHT22;11821;51.456;8.844;2022-10-13T00:23:07;8.60;99.90
23305;DHT22;11821;51.456;8.844;2022-10-13T00:25:33;8.60;99.90
23305;DHT22;11821;51.456;8.844;2022-10-13T00:28:00;8.60;99.90
23305;DHT22;11821;51.456;8.844;2022-10-13T00:30:35;8.60;99.90
23305;DHT22;11821;51.456;8.844;2022-10-13T00:33:02;8.50;99.90
23305;DHT22;11821;51.456;8.844;2022-10-13T00:35:28;8.40;99.90
23305;DHT22;11821;51.456;8.844;2022-10-13T00:37:55;8.40;99.90
23305;DHT22;11821;51.456;8.844;2022-10-13T00:40:21;8.40;99.90
23305;DHT22;11821;51.456;8.844;2022-10-13T00:42:47;8.30;99.90
23305;DHT22;11821;51.456;8.844;2022-10-13T00:45:24;8.30;99.90
23305;DHT22;11821;51.456;8.844;2022-10-13T00:47:57;8.30;99.90
23305;DHT22;11821;51.456;8.844;2022-10-13T00:50:29;8.30;99.90
23305;DHT22;11821;51.456;8.844;2022-10-13T00:52:58;8.30;99.90
23305;DHT22;11821;51.456;8.844;2022-10-13T00:55:28;8.30;99.90
23305;DHT22;11821;51.456;8.844;2022-10-13T00:57:56;8.30;99.90
23305;DHT22;11821;51.456;8.844;2022-10-13T01:00:29;8.30;99.90
23305;DHT22;11821;51.456;8.844;2022-10-13T01:02:55;8.30;99.90
23305;DHT22;11821;51.456;8.844;2022-10-13T01:05:23;8.30;99.90
23305;DHT22;11821;51.456;8.844;2022-10-13T01:07:52;8.20;99.90
23305;DHT22;11821;51.456;8.844;2022-10-13T01:10:40;8.20;99.90
23305;DHT22;11821;51.456;8.844;2022-10-13T01:13:40;8.20;99.90
23305;DHT22;11821;51.456;8.844;2022-10-13T01:21:51;8.00;99.90
23305;DHT22;11821;51.456;8.844;2022-10-13T01:27:00;8.00;99.90
23305;DHT22;11821;51.456;8.844;2022-10-13T01:32:05;8.00;99.90
23305;DHT22;11821;51.456;8.844;2022-10-13T01:37:28;8.10;99.90
23305;DHT22;11821;51.456;8.844;2022-10-13T01:43:02;8.00;99.90
23305;DHT22;11821;51.456;8.844;2022-10-13T01:48:14;7.90;99.90
23305;DHT22;11821;51.456;8.844;2022-10-13T01:50:42;8.00;99.90
23305;DHT22;11821;51.456;8.844;2022-10-13T01:53:09;7.90;99.90
23305;DHT22;11821;51.456;8.844;2022-10-13T01:55:46;8.00;99.90
23305;DHT22;11821;51.456;8.844;2022-10-13T01:58:13;8.00;99.90
23305;DHT22;11821;51.456;8.844;2022-10-13T02:00:43;8.00;99.90
23305;DHT22;11821;51.456;8.844;2022-10-13T02:03:25;8.00;99.90
23305;DHT22;11821;51.456;8.844;2022-10-13T02:06:01;8.00;99.90
23305;DHT22;11821;51.456;8.844;2022-10-13T02:08:47;8.00;99.90
23305;DHT22;11821;51.456;8.844;2022-10-13T02:11:20;8.00;99.90
23305;DHT22;11821;51.456;8.844;2022-10-13T02:13:53;8.00;99.90
23305;DHT22;11821;51.456;8.844;2022-10-13T02:16:21;8.00;99.90
23305;DHT22;11821;51.456;8.844;2022-10-13T02:18:49;8.00;99.90
23305;DHT22;11821;51.456;8.844;2022-10-13T02:21:16;7.90;99.90
23305;DHT22;11821;51.456;8.844;2022-10-13T02:23:43;8.00;99.90
23305;DHT22;11821;51.456;8.844;2022-10-13T02:26:10;8.00;99.90
23305;DHT22;11821;51.456;8.844;2022-10-13T02:28:38;8.00;99.90
23305;DHT22;11821;51.456;8.844;2022-10-13T02:31:07;8.00;99.90
23305;DHT22;11821;51.456;8.844;2022-10-13T02:33:34;8.10;99.90
23305;DHT22;11821;51.456;8.844;2022-10-13T02:36:00;8.00;99.90
23305;DHT22;11821;51.456;8.844;2022-10-13T02:38:26;8.10;99.90
23305;DHT22;11821;51.456;8.844;2022-10-13T02:40:53;8.10;99.90
23305;DHT22;11821;51.456;8.844;2022-10-13T02:43:20;8.10;99.90
23305;DHT22;11821;51.456;8.844;2022-10-13T02:45:46;8.00;99.90
23305;DHT22;11821;51.456;8.844;2022-10-13T02:48:13;8.00;99.90
23305;DHT22;11821;51.456;8.844;2022-10-13T02:50:39;8.10;99.90
23305;DHT22;11821;51.456;8.844;2022-10-13T02:53:05;8.00;99.90
23305;DHT22;11821;51.456;8.844;2022-10-13T02:55:32;8.10;99.90
23305;DHT22;11821;51.456;8.844;2022-10-13T02:57:58;8.00;99.90
23305;DHT22;11821;51.456;8.844;2022-10-13T03:00:24;8.00;99.90
23305;DHT22;11821;51.456;8.844;2022-10-13T03:02:50;8.00;99.90
23305;DHT22;11821;51.456;8.844;2022-10-13T03:05:17;8.10;99.90
23305;DHT22;11821;51.456;8.844;2022-10-13T03:12:36;8.10;99.90
23305;DHT22;11821;51.456;8.844;2022-10-13T03:19:56;8.10;99.90
23305;DHT22;11821;51.456;8.844;2022-10-13T03:22:22;8.20;99.90
23305;DHT22;11821;51.456;8.844;2022-10-13T03:24:51;8.20;99.90
23305;DHT22;11821;51.456;8.844;2022-10-13T03:27:17;8.20;99.90
23305;DHT22;11821;51.456;8.844;2022-10-13T03:29:43;8.20;99.90
23305;DHT22;11821;51.456;8.844;2022-10-13T03:32:10;8.20;99.90
23305;DHT22;11821;51.456;8.844;2022-10-13T03:34:36;8.20;99.90
23305;DHT22;11821;51.456;8.844;2022-10-13T03:37:03;8.20;99.90
23305;DHT22;11821;51.456;8.844;2022-10-13T03:39:33;8.20;99.90
23305;DHT22;11821;51.456;8.844;2022-10-13T03:41:59;8.10;99.90
23305;DHT22;11821;51.456;8.844;2022-10-13T03:44:25;8.20;99.90
23305;DHT22;11821;51.456;8.844;2022-10-13T03:46:52;8.10;99.90
23305;DHT22;11821;51.456;8.844;2022-10-13T03:49:18;8.10;99.90
23305;DHT22;11821;51.456;8.844;2022-10-13T03:59:05;8.00;99.90
23305;DHT22;11821;51.456;8.844;2022-10-13T04:01:32;8.00;99.90
23305;DHT22;11821;51.456;8.844;2022-10-13T04:03:59;7.90;99.90
23305;DHT22;11821;51.456;8.844;2022-10-13T04:06:27;7.90;99.90
23305;DHT22;11821;51.456;8.844;2022-10-13T04:13:51;8.00;99.90
23305;DHT22;11821;51.456;8.844;2022-10-13T04:16:20;8.10;99.90
23305;DHT22;11821;51.456;8.844;2022-10-13T04:18:54;8.10;99.90
23305;DHT22;11821;51.456;8.844;2022-10-13T04:21:21;8.20;99.90
23305;DHT22;11821;51.456;8.844;2022-10-13T04:23:48;8.20;99.90
23305;DHT22;11821;51.456;8.844;2022-10-13T04:26:20;8.20;99.90
23305;DHT22;11821;51.456;8.844;2022-10-13T04:28:48;8.20;99.90
23305;DHT22;11821;51.456;8.844;2022-10-13T04:31:15;8.20;99.90
23305;DHT22;11821;51.456;8.844;2022-10-13T04:38:37;8.20;99.90
23305;DHT22;11821;51.456;8.844;2022-10-13T04:41:05;8.20;99.90
23305;DHT22;11821;51.456;8.844;2022-10-13T05:17:54;8.20;99.90
23305;DHT22;11821;51.456;8.844;2022-10-13T05:20:20;8.10;99.90
23305;DHT22;11821;51.456;8.844;2022-10-13T05:49:41;8.20;99.90
23305;DHT22;11821;51.456;8.844;2022-10-13T05:52:09;8.20;99.90
23305;DHT22;11821;51.456;8.844;2022-10-13T05:54:43;8.30;99.90
23305;DHT22;11821;51.456;8.844;2022-10-13T05:57:21;8.30;99.90
23305;DHT22;11821;51.456;8.844;2022-10-13T06:00:09;8.40;99.90
23305;DHT22;11821;51.456;8.844;2022-10-13T06:05:17;8.40;99.90
23305;DHT22;11821;51.456;8.844;2022-10-13T06:07:44;8.40;99.90
23305;DHT22;11821;51.456;8.844;2022-10-13T06:10:11;8.50;99.90
23305;DHT22;11821;51.456;8.844;2022-10-13T06:12:37;8.60;99.90
23305;DHT22;11821;51.456;8.844;2022-10-13T06:15:04;8.70;99.90
23305;DHT22;11821;51.456;8.844;2022-10-13T06:17:31;8.70;99.90
23305;DHT22;11821;51.456;8.844;2022-10-13T06:19:57;8.70;99.90
23305;DHT22;11821;51.456;8.844;2022-10-13T06:22:25;8.80;99.90
23305;DHT22;11821;51.456;8.844;2022-10-13T06:24:51;8.80;99.90
23305;DHT22;11821;51.456;8.844;2022-10-13T06:27:17;8.90;99.90
23305;DHT22;11821;51.456;8.844;2022-10-13T06:29:45;9.00;99.90
23305;DHT22;11821;51.456;8.844;2022-10-13T06:32:11;9.00;99.90
23305;DHT22;11821;51.456;8.844;2022-10-13T06:34:37;8.90;99.90
23305;DHT22;11821;51.456;8.844;2022-10-13T06:37:04;9.00;99.90
23305;DHT22;11821;51.456;8.844;2022-10-13T06:39:30;9.00;99.90
23305;DHT22;11821;51.456;8.844;2022-10-13T06:42:01;9.10;99.90
23305;DHT22;11821;51.456;8.844;2022-10-13T06:44:30;9.20;99.90
23305;DHT22;11821;51.456;8.844;2022-10-13T06:47:01;9.20;99.90
23305;DHT22;11821;51.456;8.844;2022-10-13T06:49:28;9.00;99.90
23305;DHT22;11821;51.456;8.844;2022-10-13T06:51:54;9.00;99.90
23305;DHT22;11821;51.456;8.844;2022-10-13T06:54:20;9.20;99.90
23305;DHT22;11821;51.456;8.844;2022-10-13T06:56:47;9.20;99.90
23305;DHT22;11821;51.456;8.844;2022-10-13T06:59:14;9.40;99.90
23305;DHT22;11821;51.456;8.844;2022-10-13T07:01:43;9.40;99.90
23305;DHT22;11821;51.456;8.844;2022-10-13T07:04:11;9.50;99.90
23305;DHT22;11821;51.456;8.844;2022-10-13T07:06:37;9.60;99.90
23305;DHT22;11821;51.456;8.844;2022-10-13T07:09:05;9.60;99.90
23305;DHT22;11821;51.456;8.844;2022-10-13T07:11:32;9.70;99.90
23305;DHT22;11821;51.456;8.844;2022-10-13T07:13:59;9.70;99.90
23305;DHT22;11821;51.456;8.844;2022-10-13T07:16:26;9.70;99.90
23305;DHT22;11821;51.456;8.844;2022-10-13T07:18:52;9.70;99.90
23305;DHT22;11821;51.456;8.844;2022-10-13T07:21:18;9.90;99.90
23305;DHT22;11821;51.456;8.844;2022-10-13T07:23:44;9.90;99.90
23305;DHT22;11821;51.456;8.844;2022-10-13T07:26:13;10.00;99.90
23305;DHT22;11821;51.456;8.844;2022-10-13T07:28:40;10.00;99.90
23305;DHT22;11821;51.456;8.844;2022-10-13T07:31:15;10.10;99.90
23305;DHT22;11821;51.456;8.844;2022-10-13T07:33:44;10.10;99.90
23305;DHT22;11821;51.456;8.844;2022-10-13T07:36:11;10.30;99.90
23305;DHT22;11821;51.456;8.844;2022-10-13T07:38:38;10.30;99.90
23305;DHT22;11821;51.456;8.844;2022-10-13T07:41:06;10.40;99.90
23305;DHT22;11821;51.456;8.844;2022-10-13T07:43:33;10.50;99.90
23305;DHT22;11821;51.456;8.844;2022-10-13T07:46:02;10.50;99.90
23305;DHT22;11821;51.456;8.844;2022-10-13T07:48:32;10.60;99.90
23305;DHT22;11821;51.456;8.844;2022-10-13T07:51:06;10.70;99.90
23305;DHT22;11821;51.456;8.844;2022-10-13T07:53:33;10.70;99.90
23305;DHT22;11821;51.456;8.844;2022-10-13T07:56:01;10.80;99.90
23305;DHT22;11821;51.456;8.844;2022-10-13T07:58:29;10.60;99.90
23305;DHT22;11821;51.456;8.844;2022-10-13T08:00:57;10.60;99.90
23305;DHT22;11821;51.456;8.844;2022-10-13T08:03:25;10.80;99.90
23305;DHT22;11821;51.456;8.844;2022-10-13T08:05:52;10.90;99.90
23305;DHT22;11821;51.456;8.844;2022-10-13T08:08:19;11.00;99.90
23305;DHT22;11821;51.456;8.844;2022-10-13T08:10:45;11.10;99.90
23305;DHT22;11821;51.456;8.844;2022-10-13T08:13:12;11.10;99.90
23305;DHT22;11821;51.456;8.844;2022-10-13T08:15:43;11.10;99.90
23305;DHT22;11821;51.456;8.844;2022-10-13T08:18:11;10.80;99.90
23305;DHT22;11821;51.456;8.844;2022-10-13T08:20:44;10.70;99.90
23305;DHT22;11821;51.456;8.844;2022-10-13T08:23:12;10.90;99.90
23305;DHT22;11821;51.456;8.844;2022-10-13T08:25:43;10.90;99.90
23305;DHT22;11821;51.456;8.844;2022-10-13T08:28:18;11.00;99.90
23305;DHT22;11821;51.456;8.844;2022-10-13T08:30:45;11.20;99.90
23305;DHT22;11821;51.456;8.844;2022-10-13T08:33:12;11.40;99.90
23305;DHT22;11821;51.456;8.844;2022-10-13T08:35:38;11.60;99.90
23305;DHT22;11821;51.456;8.844;2022-10-13T08:38:05;11.80;99.90
23305;DHT22;11821;51.456;8.844;2022-10-13T08:40:32;12.10;99.90
23305;DHT22;11821;51.456;8.844;2022-10-13T08:43:18;12.20;99.90
23305;DHT22;11821;51.456;8.844;2022-10-13T08:45:47;12.30;99.90
23305;DHT22;11821;51.456;8.844;2022-10-13T08:48:18;12.70;99.90
23305;DHT22;11821;51.456;8.844;2022-10-13T08:50:48;13.10;99.90
23305;DHT22;11821;51.456;8.844;2022-10-13T08:53:32;13.40;99.90
23305;DHT22;11821;51.456;8.844;2022-10-13T08:58:34;13.90;99.90
23305;DHT22;11821;51.456;8.844;2022-10-13T09:03:47;13.90;99.90
23305;DHT22;11821;51.456;8.844;2022-10-13T09:06:21;14.10;99.90
23305;DHT22;11821;51.456;8.844;2022-10-13T09:09:07;14.20;99.90
23305;DHT22;11821;51.456;8.844;2022-10-13T09:11:38;14.60;99.90
23305;DHT22;11821;51.456;8.844;2022-10-13T09:14:11;14.90;99.90
23305;DHT22;11821;51.456;8.844;2022-10-13T09:16:43;15.20;99.90
23305;DHT22;11821;51.456;8.844;2022-10-13T09:21:39;15.60;99.90
23305;DHT22;11821;51.456;8.844;2022-10-13T09:24:06;15.50;99.90
23305;DHT22;11821;51.456;8.844;2022-10-13T09:26:37;15.60;99.90
23305;DHT22;11821;51.456;8.844;2022-10-13T09:29:33;15.60;99.90
23305;DHT22;11821;51.456;8.844;2022-10-13T09:32:25;15.60;99.90
23305;DHT22;11821;51.456;8.844;2022-10-13T09:34:52;15.80;99.90
23305;DHT22;11821;51.456;8.844;2022-10-13T09:37:23;15.70;99.90
23305;DHT22;11821;51.456;8.844;2022-10-13T09:40:00;15.50;99.90
23305;DHT22;11821;51.456;8.844;2022-10-13T09:42:29;15.70;99.90
23305;DHT22;11821;51.456;8.844;2022-10-13T09:45:15;15.80;99.90
23305;DHT22;11821;51.456;8.844;2022-10-13T09:50:34;16.10;99.90
23305;DHT22;11821;51.456;8.844;2022-10-13T09:53:33;16.10;99.90
23305;DHT22;11821;51.456;8.844;2022-10-13T09:59:27;16.10;99.90
23305;DHT22;11821;51.456;8.844;2022-10-13T10:01:56;16.50;99.90
23305;DHT22;11821;51.456;8.844;2022-10-13T10:04:28;16.80;99.90
23305;DHT22;11821;51.456;8.844;2022-10-13T10:06:56;16.70;99.90
23305;DHT22;11821;51.456;8.844;2022-10-13T10:09:33;16.70;99.90
23305;DHT22;11821;51.456;8.844;2022-10-13T10:12:03;16.70;99.90
23305;DHT22;11821;51.456;8.844;2022-10-13T10:14:32;16.60;99.90
23305;DHT22;11821;51.456;8.844;2022-10-13T10:25:48;16.60;99.90
23305;DHT22;11821;51.456;8.844;2022-10-13T10:34:23;17.40;99.90
23305;DHT22;11821;51.456;8.844;2022-10-13T10:36:54;17.80;99.90
23305;DHT22;11821;51.456;8.844;2022-10-13T10:45:01;18.30;99.90
23305;DHT22;11821;51.456;8.844;2022-10-13T10:47:39;18.80;99.90
23305;DHT22;11821;51.456;8.844;2022-10-13T10:50:07;18.90;99.90
23305;DHT22;11821;51.456;8.844;2022-10-13T10:53:28;18.90;99.90
23305;DHT22;11821;51.456;8.844;2022-10-13T11:01:27;18.70;99.90
23305;DHT22;11821;51.456;8.844;2022-10-13T11:04:40;18.60;99.90
23305;DHT22;11821;51.456;8.844;2022-10-13T11:07:13;18.90;99.90
23305;DHT22;11821;51.456;8.844;2022-10-13T11:19:49;19.20;99.90
23305;DHT22;11821;51.456;8.844;2022-10-13T11:22:18;19.40;99.90
23305;DHT22;11821;51.456;8.844;2022-10-13T11:24:50;19.50;99.90
23305;DHT22;11821;51.456;8.844;2022-10-13T11:27:17;19.20;99.90
23305;DHT22;11821;51.456;8.844;2022-10-13T11:35:16;19.40;99.90
23305;DHT22;11821;51.456;8.844;2022-10-13T11:40:32;19.30;99.90
23305;DHT22;11821;51.456;8.844;2022-10-13T11:46:30;19.30;99.90
23305;DHT22;11821;51.456;8.844;2022-10-13T11:51:20;19.60;99.90
23305;DHT22;11821;51.456;8.844;2022-10-13T11:59:32;19.60;99.90
23305;DHT22;11821;51.456;8.844;2022-10-13T12:02:05;19.60;99.90
23305;DHT22;11821;51.456;8.844;2022-10-13T12:04:38;19.60;99.90
23305;DHT22;11821;51.456;8.844;2022-10-13T12:07:09;19.70;99.90
23305;DHT22;11821;51.456;8.844;2022-10-13T12:12:18;19.70;99.90
23305;DHT22;11821;51.456;8.844;2022-10-13T12:14:53;19.70;99.90
23305;DHT22;11821;51.456;8.844;2022-10-13T12:19:57;19.70;99.90
23305;DHT22;11821;51.456;8.844;2022-10-13T12:22:26;19.70;99.90
23305;DHT22;11821;51.456;8.844;2022-10-13T12:25:01;19.40;99.90
23305;DHT22;11821;51.456;8.844;2022-10-13T12:27:29;19.20;99.90
23305;DHT22;11821;51.456;8.844;2022-10-13T12:30:00;19.10;99.90
23305;DHT22;11821;51.456;8.844;2022-10-13T12:32:32;18.90;99.90
23305;DHT22;11821;51.456;8.844;2022-10-13T12:35:32;18.80;99.90
23305;DHT22;11821;51.456;8.844;2022-10-13T12:38:05;18.70;99.90
23305;DHT22;11821;51.456;8.844;2022-10-13T12:40:34;18.70;99.90
23305;DHT22;11821;51.456;8.844;2022-10-13T12:43:02;18.70;99.90
23305;DHT22;11821;51.456;8.844;2022-10-13T12:45:31;18.60;99.90
23305;DHT22;11821;51.456;8.844;2022-10-13T12:47:58;18.70;99.90
23305;DHT22;11821;51.456;8.844;2022-10-13T12:53:09;18.80;99.90
23305;DHT22;11821;51.456;8.844;2022-10-13T12:55:49;18.90;99.90
23305;DHT22;11821;51.456;8.844;2022-10-13T12:58:26;18.90;99.90
23305;DHT22;11821;51.456;8.844;2022-10-13T13:03:31;19.00;99.90
23305;DHT22;11821;51.456;8.844;2022-10-13T13:08:41;19.20;99.90
23305;DHT22;11821;51.456;8.844;2022-10-13T13:11:23;19.30;99.90
23305;DHT22;11821;51.456;8.844;2022-10-13T13:17:11;19.50;99.90
23305;DHT22;11821;51.456;8.844;2022-10-13T13:19:39;19.50;99.90
23305;DHT22;11821;51.456;8.844;2022-10-13T13:22:08;19.60;99.90
23305;DHT22;11821;51.456;8.844;2022-10-13T13:24:35;19.60;99.90
23305;DHT22;11821;51.456;8.844;2022-10-13T13:27:31;19.60;99.90
23305;DHT22;11821;51.456;8.844;2022-10-13T13:29:59;19.40;99.90
23305;DHT22;11821;51.456;8.844;2022-10-13T13:32:26;19.40;99.90
23305;DHT22;11821;51.456;8.844;2022-10-13T13:34:53;19.40;99.90
23305;DHT22;11821;51.456;8.844;2022-10-13T13:37:33;19.30;99.90
23305;DHT22;11821;51.456;8.844;2022-10-13T13:40:00;19.30;99.90
23305;DHT22;11821;51.456;8.844;2022-10-13T13:42:27;19.20;99.90
23305;DHT22;11821;51.456;8.844;2022-10-13T13:44:54;19.30;99.90
23305;DHT22;11821;51.456;8.844;2022-10-13T13:47:23;19.30;99.90
23305;DHT22;11821;51.456;8.844;2022-10-13T13:49:51;19.30;99.90
23305;DHT22;11821;51.456;8.844;2022-10-13T13:52:19;19.20;99.90
23305;DHT22;11821;51.456;8.844;2022-10-13T13:54:47;19.10;99.90
23305;DHT22;11821;51.456;8.844;2022-10-13T13:57:16;19.00;99.90
23305;DHT22;11821;51.456;8.844;2022-10-13T13:59:43;19.00;99.90
23305;DHT22;11821;51.456;8.844;2022-10-13T14:02:15;18.90;99.90
23305;DHT22;11821;51.456;8.844;2022-10-13T14:04:42;18.70;99.90
23305;DHT22;11821;51.456;8.844;2022-10-13T14:07:09;18.70;99.90
23305;DHT22;11821;51.456;8.844;2022-10-13T14:09:36;18.70;99.90
23305;DHT22;11821;51.456;8.844;2022-10-13T14:12:02;18.60;99.90
23305;DHT22;11821;51.456;8.844;2022-10-13T14:14:30;18.60;99.90
23305;DHT22;11821;51.456;8.844;2022-10-13T14:17:00;18.40;99.90
23305;DHT22;11821;51.456;8.844;2022-10-13T14:19:29;18.30;99.90
23305;DHT22;11821;51.456;8.844;2022-10-13T14:21:56;18.40;99.90
23305;DHT22;11821;51.456;8.844;2022-10-13T14:24:22;18.50;99.90
23305;DHT22;11821;51.456;8.844;2022-10-13T14:26:49;18.40;99.90
23305;DHT22;11821;51.456;8.844;2022-10-13T14:29:15;18.40;99.90
23305;DHT22;11821;51.456;8.844;2022-10-13T14:31:42;18.40;99.90
23305;DHT22;11821;51.456;8.844;2022-10-13T14:34:08;18.30;99.90
23305;DHT22;11821;51.456;8.844;2022-10-13T14:36:35;18.30;99.90
23305;DHT22;11821;51.456;8.844;2022-10-13T14:39:02;18.20;99.90
23305;DHT22;11821;51.456;8.844;2022-10-13T14:41:29;18.20;99.90
23305;DHT22;11821;51.456;8.844;2022-10-13T14:43:56;18.30;99.90
23305;DHT22;11821;51.456;8.844;2022-10-13T14:46:23;18.40;99.90
23305;DHT22;11821;51.456;8.844;2022-10-13T14:48:49;18.40;99.90
23305;DHT22;11821;51.456;8.844;2022-10-13T14:51:16;18.50;99.90
23305;DHT22;11821;51.456;8.844;2022-10-13T14:53:44;18.50;99.90
23305;DHT22;11821;51.456;8.844;2022-10-13T14:58:52;18.50;99.90
23305;DHT22;11821;51.456;8.844;2022-10-13T15:01:19;18.50;99.90
23305;DHT22;11821;51.456;8.844;2022-10-13T15:03:46;18.40;99.90
23305;DHT22;11821;51.456;8.844;2022-10-13T15:06:18;18.50;99.90
23305;DHT22;11821;51.456;8.844;2022-10-13T15:08:45;18.40;99.90
23305;DHT22;11821;51.456;8.844;2022-10-13T15:11:12;18.30;99.90
23305;DHT22;11821;51.456;8.844;2022-10-13T15:13:39;18.30;99.90
23305;DHT22;11821;51.456;8.844;2022-10-13T15:16:06;18.30;99.90
23305;DHT22;11821;51.456;8.844;2022-10-13T15:18:34;18.20;99.90
23305;DHT22;11821;51.456;8.844;2022-10-13T15:21:01;18.20;99.90
23305;DHT22;11821;51.456;8.844;2022-10-13T15:23:28;18.10;99.90
23305;DHT22;11821;51.456;8.844;2022-10-13T15:25:56;18.10;99.90
23305;DHT22;11821;51.456;8.844;2022-10-13T15:28:25;17.90;99.90
23305;DHT22;11821;51.456;8.844;2022-10-13T15:30:52;17.90;99.90
23305;DHT22;11821;51.456;8.844;2022-10-13T15:33:21;17.80;99.90
23305;DHT22;11821;51.456;8.844;2022-10-13T15:35:49;17.80;99.90
23305;DHT22;11821;51.456;8.844;2022-10-13T15:38:16;17.80;99.90
23305;DHT22;11821;51.456;8.844;2022-10-13T15:40:43;17.70;99.90
23305;DHT22;11821;51.456;8.844;2022-10-13T15:43:10;17.60;99.90
23305;DHT22;11821;51.456;8.844;2022-10-13T15:45:37;17.60;99.90
23305;DHT22;11821;51.456;8.844;2022-10-13T15:48:07;17.50;99.90
23305;DHT22;11821;51.456;8.844;2022-10-13T15:50:37;17.40;99.90
23305;DHT22;11821;51.456;8.844;2022-10-13T15:53:04;17.40;99.90
23305;DHT22;11821;51.456;8.844;2022-10-13T15:55:31;17.30;99.90
23305;DHT22;11821;51.456;8.844;2022-10-13T15:57:58;17.20;99.90
23305;DHT22;11821;51.456;8.844;2022-10-13T16:00:24;17.20;99.90
23305;DHT22;11821;51.456;8.844;2022-10-13T16:02:50;17.20;99.90
23305;DHT22;11821;51.456;8.844;2022-10-13T16:05:17;17.10;99.90
23305;DHT22;11821;51.456;8.844;2022-10-13T16:07:44;17.00;99.90
23305;DHT22;11821;51.456;8.844;2022-10-13T16:10:12;17.00;99.90
23305;DHT22;11821;51.456;8.844;2022-10-13T16:12:40;17.00;99.90
23305;DHT22;11821;51.456;8.844;2022-10-13T16:15:06;16.90;99.90
23305;DHT22;11821;51.456;8.844;2022-10-13T16:17:33;16.90;99.90
23305;DHT22;11821;51.456;8.844;2022-10-13T16:20:00;16.90;99.90
23305;DHT22;11821;51.456;8.844;2022-10-13T16:22:26;16.80;99.90
23305;DHT22;11821;51.456;8.844;2022-10-13T16:24:52;16.80;99.90
23305;DHT22;11821;51.456;8.844;2022-10-13T16:27:19;16.70;99.90
23305;DHT22;11821;51.456;8.844;2022-10-13T16:29:45;16.70;99.90
23305;DHT22;11821;51.456;8.844;2022-10-13T16:32:11;16.60;99.90
23305;DHT22;11821;51.456;8.844;2022-10-13T16:34:38;16.60;99.90
23305;DHT22;11821;51.456;8.844;2022-10-13T16:37:04;16.50;99.90
23305;DHT22;11821;51.456;8.844;2022-10-13T16:39:30;16.50;99.90
23305;DHT22;11821;51.456;8.844;2022-10-13T16:41:57;16.50;99.90
23305;DHT22;11821;51.456;8.844;2022-10-13T16:44:24;16.50;99.90
23305;DHT22;11821;51.456;8.844;2022-10-13T16:46:50;16.40;99.90
23305;DHT22;11821;51.456;8.844;2022-10-13T16:49:18;16.50;99.90
23305;DHT22;11821;51.456;8.844;2022-10-13T16:51:45;16.50;99.90
23305;DHT22;11821;51.456;8.844;2022-10-13T16:54:11;16.40;99.90
23305;DHT22;11821;51.456;8.844;2022-10-13T16:56:37;16.30;99.90
23305;DHT22;11821;51.456;8.844;2022-10-13T16:59:05;16.30;99.90
23305;DHT22;11821;51.456;8.844;2022-10-13T17:01:32;16.30;99.90
23305;DHT22;11821;51.456;8.844;2022-10-13T17:03:59;16.30;99.90
23305;DHT22;11821;51.456;8.844;2022-10-13T17:06:27;16.20;99.90
23305;DHT22;11821;51.456;8.844;2022-10-13T17:08:56;16.20;99.90
23305;DHT22;11821;51.456;8.844;2022-10-13T17:11:28;16.30;99.90
23305;DHT22;11821;51.456;8.844;2022-10-13T17:13:56;16.20;99.90
23305;DHT22;11821;51.456;8.844;2022-10-13T17:16:23;16.20;99.90
23305;DHT22;11821;51.456;8.844;2022-10-13T17:18:49;16.20;99.90
23305;DHT22;11821;51.456;8.844;2022-10-13T17:21:17;16.20;99.90
23305;DHT22;11821;51.456;8.844;2022-10-13T17:23:43;16.20;99.90
23305;DHT22;11821;51.456;8.844;2022-10-13T17:26:12;16.10;99.90
23305;DHT22;11821;51.456;8.844;2022-10-13T17:28:39;16.20;99.90
23305;DHT22;11821;51.456;8.844;2022-10-13T17:31:09;16.10;99.90
23305;DHT22;11821;51.456;8.844;2022-10-13T17:33:38;16.10;99.90
23305;DHT22;11821;51.456;8.844;2022-10-13T17:36:19;16.10;99.90
23305;DHT22;11821;51.456;8.844;2022-10-13T17:38:47;16.00;99.90
23305;DHT22;11821;51.456;8.844;2022-10-13T17:41:14;16.10;99.90
23305;DHT22;11821;51.456;8.844;2022-10-13T17:43:49;16.00;99.90
23305;DHT22;11821;51.456;8.844;2022-10-13T17:48:44;15.90;99.90
23305;DHT22;11821;51.456;8.844;2022-10-13T17:51:12;15.90;99.90
23305;DHT22;11821;51.456;8.844;2022-10-13T17:53:40;15.90;99.90
23305;DHT22;11821;51.456;8.844;2022-10-13T17:56:13;15.80;99.90
23305;DHT22;11821;51.456;8.844;2022-10-13T17:58:41;15.80;99.90
23305;DHT22;11821;51.456;8.844;2022-10-13T18:01:13;15.80;99.90
23305;DHT22;11821;51.456;8.844;2022-10-13T18:03:45;15.80;99.90
23305;DHT22;11821;51.456;8.844;2022-10-13T18:06:12;15.70;99.90
23305;DHT22;11821;51.456;8.844;2022-10-13T18:08:39;15.70;99.90
23305;DHT22;11821;51.456;8.844;2022-10-13T18:11:07;15.70;99.90
23305;DHT22;11821;51.456;8.844;2022-10-13T18:13:34;15.60;99.90
23305;DHT22;11821;51.456;8.844;2022-10-13T18:16:06;15.50;99.90
23305;DHT22;11821;51.456;8.844;2022-10-13T18:18:33;15.50;99.90
23305;DHT22;11821;51.456;8.844;2022-10-13T18:21:01;15.50;99.90
23305;DHT22;11821;51.456;8.844;2022-10-13T18:23:32;15.40;99.90
23305;DHT22;11821;51.456;8.844;2022-10-13T18:26:04;15.40;99.90
23305;DHT22;11821;51.456;8.844;2022-10-13T18:28:33;15.40;99.90
23305;DHT22;11821;51.456;8.844;2022-10-13T18:31:09;15.30;99.90
23305;DHT22;11821;51.456;8.844;2022-10-13T18:33:37;15.30;99.90
23305;DHT22;11821;51.456;8.844;2022-10-13T18:36:25;15.30;99.90
23305;DHT22;11821;51.456;8.844;2022-10-13T18:39:03;15.30;99.90
23305;DHT22;11821;51.456;8.844;2022-10-13T18:41:30;15.30;99.90
23305;DHT22;11821;51.456;8.844;2022-10-13T18:43:57;15.30;99.90
23305;DHT22;11821;51.456;8.844;2022-10-13T18:46:24;15.30;99.90
23305;DHT22;11821;51.456;8.844;2022-10-13T18:48:52;15.20;99.90
23305;DHT22;11821;51.456;8.844;2022-10-13T18:51:18;15.30;99.90
23305;DHT22;11821;51.456;8.844;2022-10-13T18:53:46;15.20;99.90
23305;DHT22;11821;51.456;8.844;2022-10-13T18:56:21;15.20;99.90
23305;DHT22;11821;51.456;8.844;2022-10-13T18:58:48;15.20;99.90
23305;DHT22;11821;51.456;8.844;2022-10-13T19:01:21;15.20;99.90
23305;DHT22;11821;51.456;8.844;2022-10-13T19:03:48;15.20;99.90
23305;DHT22;11821;51.456;8.844;2022-10-13T19:06:17;15.20;99.90
23305;DHT22;11821;51.456;8.844;2022-10-13T19:08:45;15.10;99.90
23305;DHT22;11821;51.456;8.844;2022-10-13T19:13:40;15.20;99.90